SBOSBO BOS / KBOS
Speedbird OnlineSpeedbird Online BOS / KBOS

General Edward Lawrence Logan International Airport
02:25 14.6°C

Location Boston, United States
Latitude: 42.36429977
Longitude: -71.00520325
Web Airport Website | Wikipedia
Altitude 6 Meter / 20 Feet
Distance 5,277 KM / 3,279 Miles
from London.
Time Zone UTC -4 hours (America/New_York)
Codes IATA: BOS
ICAO: KBOS
Currency £1 equals USD 1.13
Runways
RunwayLength (m)Surface
04L2396Asphalt
04R3050Asphalt
092134Asphalt
141524ASPH-G
15L779Asphalt
15R3073Asphalt
22L3050Asphalt
22R2396Asphalt
272134Asphalt
321524ASPH-G
33L3073Asphalt
33R779Asphalt
Radio
TypeDescriptionFrequency
APPBOSTON APP118.25
ATISATIS135
CLDCLNC DEL121.65
DEPBOSTON DEP133
GNDGND121.9
GTEGATE134.05
RDOBRIDGEPORT RDO122.4
TWRBOSTON TWR124.725
UNICUNICOM122.95
Live ATC
METAR KBOS 060554Z 34007KT 2SM -RA BR FEW003 OVC007 15/14 A2990 RMK AO2 SLP126 P0000 60009 T01500144 10150 20144 56010 $
TAF KBOS 060522Z 0606/0712 36007KT 2SM BR VCSH OVC008 FM061000 34006KT 4SM BR BKN020 FM061600 35005KT P6SM OVC050 FM061900 05005KT P6SM FEW250 FM062200 14005KT P6SM SCT250
Weather As Of 06 Oct 2022 02:25
Description Mist
Wind 13 km/h from North (340°)
Cloud Cover 100%
Precipitation Rain: none, Snow: none
Sunrise 06:46
Sunset 18:17
Lounges American Airlines Admirals Club, Terminal B
British Airways Lounge (Open), Terminal E
Air France Lounge, Terminal E
Rotations During the last 90 days there were
182 flights from LHR
129 flights to LHR


© 2017-2022 Speedbird Online